createdAt,value
2018-07-11T00:01:37.820Z,94.10
2018-07-11T00:04:06.119Z,94.20
2018-07-11T00:06:34.392Z,94.00
2018-07-11T00:09:02.705Z,94.20
2018-07-11T00:11:30.981Z,94.00
2018-07-11T00:13:59.258Z,93.70
2018-07-11T00:16:27.529Z,94.10
2018-07-11T00:18:55.804Z,93.70
2018-07-11T00:21:24.111Z,94.10
2018-07-11T00:23:52.398Z,94.30
2018-07-11T00:26:20.689Z,93.70
2018-07-11T00:28:49.495Z,94.20
2018-07-11T00:31:17.772Z,93.90
2018-07-11T00:33:46.093Z,94.20
2018-07-11T00:36:14.412Z,94.30
2018-07-11T00:38:43.377Z,94.40
2018-07-11T00:41:11.688Z,94.00
2018-07-11T00:43:39.993Z,94.50
2018-07-11T00:46:08.264Z,94.60
2018-07-11T00:48:36.576Z,94.20
2018-07-11T00:51:05.084Z,94.30
2018-07-11T00:53:33.796Z,94.00
2018-07-11T00:56:02.560Z,94.40
2018-07-11T00:58:45.049Z,94.30
2018-07-11T01:01:14.504Z,94.20
2018-07-11T01:03:45.204Z,94.40
2018-07-11T01:06:13.468Z,94.50
2018-07-11T01:08:42.186Z,94.50
2018-07-11T01:11:17.137Z,94.00
2018-07-11T01:13:46.743Z,94.20
2018-07-11T01:16:16.171Z,94.20
2018-07-11T01:19:03.121Z,94.10
2018-07-11T01:21:32.179Z,93.90
2018-07-11T01:24:00.484Z,93.90
2018-07-11T01:26:31.962Z,94.00
2018-07-11T01:29:00.260Z,93.80
2018-07-11T01:31:28.539Z,94.20
2018-07-11T01:33:57.359Z,94.50
2018-07-11T01:36:26.032Z,94.60
2018-07-11T01:38:54.507Z,94.00
2018-07-11T01:41:22.805Z,93.80
2018-07-11T01:43:51.174Z,94.10
2018-07-11T01:46:19.520Z,94.40
2018-07-11T01:48:47.829Z,94.40
2018-07-11T01:51:16.103Z,94.30
2018-07-11T01:53:44.384Z,94.20
2018-07-11T01:56:12.696Z,94.20
2018-07-11T01:58:43.819Z,94.10
2018-07-11T02:01:12.130Z,94.60
2018-07-11T02:03:40.428Z,94.30
2018-07-11T02:06:08.738Z,94.10
2018-07-11T02:08:37.045Z,94.30
2018-07-11T02:11:05.369Z,94.30
2018-07-11T02:13:33.681Z,94.20
2018-07-11T02:16:02.005Z,94.30
2018-07-11T02:18:30.740Z,94.10
2018-07-11T02:20:59.948Z,94.40
2018-07-11T02:23:34.625Z,94.10
2018-07-11T02:26:02.932Z,94.20
2018-07-11T02:28:31.312Z,94.10
2018-07-11T02:30:59.627Z,94.40
2018-07-11T02:33:27.934Z,94.40
2018-07-11T02:35:56.241Z,94.50
2018-07-11T02:38:24.540Z,94.40
2018-07-11T02:40:52.812Z,94.30
2018-07-11T02:43:21.116Z,94.50
2018-07-11T02:45:49.432Z,94.50
2018-07-11T02:48:17.725Z,94.60
2018-07-11T02:50:46.025Z,94.50
2018-07-11T02:53:21.847Z,94.50
2018-07-11T02:55:51.024Z,94.40
2018-07-11T02:58:19.501Z,94.20
2018-07-11T03:00:48.216Z,94.40
2018-07-11T03:03:16.679Z,94.10
2018-07-11T03:05:45.157Z,94.00
2018-07-11T03:08:14.682Z,93.90
2018-07-11T03:10:42.981Z,94.60
2018-07-11T03:13:11.233Z,94.40
2018-07-11T03:15:39.497Z,94.30
2018-07-11T03:18:07.761Z,95.20
2018-07-11T03:20:36.245Z,94.80
2018-07-11T03:23:04.676Z,94.50
2018-07-11T03:25:32.987Z,94.80
2018-07-11T03:28:01.287Z,94.50
2018-07-11T03:30:29.539Z,94.30
2018-07-11T03:32:57.852Z,94.30
2018-07-11T03:35:26.112Z,94.50
2018-07-11T03:37:54.388Z,94.40
2018-07-11T03:40:22.716Z,94.50
2018-07-11T03:42:51.047Z,94.30
2018-07-11T03:45:19.309Z,94.40
2018-07-11T03:47:47.604Z,94.70
2018-07-11T03:50:15.896Z,94.70
2018-07-11T03:52:44.147Z,94.50
2018-07-11T03:55:12.412Z,94.60
2018-07-11T03:57:40.876Z,94.10
2018-07-11T04:00:09.180Z,94.50
2018-07-11T04:02:37.439Z,94.60
2018-07-11T04:05:05.770Z,94.20
2018-07-11T04:07:34.027Z,94.30
2018-07-11T04:10:02.297Z,94.50
2018-07-11T04:12:30.596Z,94.30
2018-07-11T04:14:58.965Z,94.20
2018-07-11T04:17:27.238Z,94.50
2018-07-11T04:19:55.560Z,94.00
2018-07-11T04:22:23.804Z,94.00
2018-07-11T04:24:52.104Z,93.50
2018-07-11T04:27:20.634Z,93.50
2018-07-11T04:29:48.949Z,94.00
2018-07-11T04:32:17.271Z,94.00
2018-07-11T04:34:45.578Z,93.70
2018-07-11T04:37:13.869Z,92.80
2018-07-11T04:39:42.164Z,92.50
2018-07-11T04:42:10.468Z,91.40
2018-07-11T04:44:38.731Z,91.90
2018-07-11T04:47:07.033Z,92.80
2018-07-11T04:49:35.301Z,93.00
2018-07-11T04:52:03.614Z,92.60
2018-07-11T04:54:31.917Z,92.20
2018-07-11T04:57:00.232Z,91.40
2018-07-11T04:59:28.499Z,91.00
2018-07-11T05:01:56.780Z,91.10
2018-07-11T05:04:25.052Z,92.00
2018-07-11T05:06:53.425Z,91.50
2018-07-11T05:09:21.683Z,91.40
2018-07-11T05:11:49.927Z,90.60
2018-07-11T05:14:18.203Z,90.30
2018-07-11T05:16:46.438Z,90.20
2018-07-11T05:19:14.688Z,90.00
2018-07-11T05:21:42.940Z,90.80
2018-07-11T05:24:11.190Z,90.70
2018-07-11T05:26:39.455Z,91.80
2018-07-11T05:29:07.703Z,90.50
2018-07-11T05:31:35.942Z,89.60
2018-07-11T05:34:04.204Z,89.90
2018-07-11T05:36:32.461Z,88.00
2018-07-11T05:39:00.900Z,87.60
2018-07-11T05:41:29.356Z,88.60
2018-07-11T05:43:58.128Z,87.60
2018-07-11T05:46:26.402Z,88.40
2018-07-11T05:48:54.668Z,89.10
2018-07-11T05:51:22.919Z,89.70
2018-07-11T05:53:51.168Z,88.30
2018-07-11T05:56:19.441Z,86.70
2018-07-11T05:58:47.687Z,86.00
2018-07-11T06:01:15.953Z,84.10
2018-07-11T06:03:44.190Z,84.50
2018-07-11T06:06:12.455Z,86.80
2018-07-11T06:08:40.735Z,83.90
2018-07-11T06:11:19.024Z,83.80
2018-07-11T06:13:47.261Z,82.40
2018-07-11T06:16:15.526Z,82.40
2018-07-11T06:18:43.805Z,81.80
2018-07-11T06:21:12.064Z,82.90
2018-07-11T06:23:40.317Z,84.30
2018-07-11T06:26:08.560Z,79.50
2018-07-11T06:28:36.812Z,81.30
2018-07-11T06:31:05.424Z,81.50
2018-07-11T06:33:33.934Z,79.30
2018-07-11T06:36:02.144Z,78.60
2018-07-11T06:38:30.424Z,78.70
2018-07-11T06:40:58.664Z,77.10
2018-07-11T06:43:26.917Z,76.60
2018-07-11T06:45:55.237Z,74.30
2018-07-11T06:48:23.624Z,76.10
2018-07-11T06:50:51.892Z,74.80
2018-07-11T06:53:20.204Z,75.20
2018-07-11T06:55:48.454Z,75.40
2018-07-11T06:58:16.708Z,74.80
2018-07-11T07:00:44.986Z,77.60
2018-07-11T07:03:13.241Z,75.10
2018-07-11T07:05:41.491Z,74.30
2018-07-11T07:08:09.751Z,74.90
2018-07-11T07:10:38.028Z,75.60
2018-07-11T07:13:06.357Z,76.60
2018-07-11T07:15:34.625Z,74.20
2018-07-11T07:18:02.902Z,72.20
2018-07-11T07:20:31.163Z,72.90
2018-07-11T07:22:59.408Z,72.00
2018-07-11T07:25:27.720Z,73.60
2018-07-11T07:27:55.981Z,71.90
2018-07-11T07:30:24.237Z,72.50
2018-07-11T07:32:52.490Z,74.10
2018-07-11T07:35:20.764Z,73.50
2018-07-11T07:37:49.034Z,76.60
2018-07-11T07:40:17.297Z,72.90
2018-07-11T07:42:45.552Z,71.20
2018-07-11T07:45:13.843Z,71.80
2018-07-11T07:47:44.119Z,69.30
2018-07-11T07:50:12.897Z,69.10
2018-07-11T07:52:41.434Z,69.10
2018-07-11T07:55:10.157Z,68.30
2018-07-11T07:57:38.468Z,69.40
2018-07-11T08:00:06.909Z,69.90
2018-07-11T08:02:35.154Z,67.40
2018-07-11T08:05:05.343Z,66.00
2018-07-11T08:07:34.180Z,68.10
2018-07-11T08:10:02.463Z,67.60
2018-07-11T08:12:30.731Z,68.70
2018-07-11T08:14:58.995Z,67.00
2018-07-11T08:17:27.289Z,64.30
2018-07-11T08:19:55.538Z,63.20
2018-07-11T08:22:34.944Z,63.90
2018-07-11T08:25:14.483Z,66.80
2018-07-11T08:27:55.905Z,64.00
2018-07-11T08:30:36.354Z,66.20
2018-07-11T08:35:17.781Z,63.50
2018-07-11T08:37:57.860Z,64.00
2018-07-11T08:40:49.082Z,64.00
2018-07-11T08:43:26.808Z,65.70
2018-07-11T08:46:06.077Z,62.70
2018-07-11T08:50:45.654Z,62.90
2018-07-11T08:53:25.167Z,60.70
2018-07-11T08:56:09.985Z,59.10
2018-07-11T08:58:53.172Z,58.80
2018-07-11T09:01:31.298Z,61.00
2018-07-11T09:06:18.297Z,59.20
2018-07-11T09:08:56.884Z,59.20
2018-07-11T09:12:42.283Z,60.80
2018-07-11T09:15:24.520Z,61.40
2018-07-11T09:18:02.932Z,62.00
2018-07-11T09:21:46.865Z,61.10
2018-07-11T09:24:31.576Z,60.40
2018-07-11T09:26:59.836Z,59.50
2018-07-11T09:29:28.088Z,60.10
2018-07-11T09:31:56.396Z,60.20
2018-07-11T09:34:24.685Z,61.70
2018-07-11T09:36:53.255Z,61.90
2018-07-11T09:39:21.542Z,60.00
2018-07-11T09:41:49.821Z,59.40
2018-07-11T09:44:18.140Z,58.60
2018-07-11T09:46:46.472Z,57.80
2018-07-11T09:49:14.780Z,60.30
2018-07-11T09:51:43.085Z,56.80
2018-07-11T09:54:11.336Z,56.20
2018-07-11T09:56:39.718Z,58.40
2018-07-11T09:59:08.013Z,57.40
2018-07-11T10:01:36.308Z,55.50
2018-07-11T10:04:04.630Z,57.20
2018-07-11T10:06:32.944Z,56.40
2018-07-11T10:09:01.235Z,55.40
2018-07-11T10:11:29.505Z,54.80
2018-07-11T10:13:57.792Z,55.60
2018-07-11T10:16:26.053Z,57.80
2018-07-11T10:19:03.240Z,56.40
2018-07-11T10:21:32.462Z,55.40
2018-07-11T10:24:00.888Z,54.60
2018-07-11T10:26:29.168Z,53.30
2018-07-11T10:28:57.523Z,54.00
2018-07-11T10:31:26.644Z,51.60
2018-07-11T10:33:54.916Z,51.60
2018-07-11T10:36:23.188Z,53.60
2018-07-11T10:38:51.460Z,51.00
2018-07-11T10:41:19.732Z,52.60
2018-07-11T10:43:48.399Z,53.60
2018-07-11T10:46:16.637Z,54.10
2018-07-11T10:48:44.897Z,52.70
2018-07-11T10:51:13.147Z,52.90
2018-07-11T10:53:41.451Z,53.50
2018-07-11T10:56:09.703Z,54.60
2018-07-11T10:58:38.026Z,55.10
2018-07-11T11:01:06.371Z,54.30
2018-07-11T11:03:34.840Z,53.30
2018-07-11T11:06:03.240Z,55.50
2018-07-11T11:08:31.885Z,54.20
2018-07-11T11:11:00.200Z,56.20
2018-07-11T11:13:28.497Z,52.80
2018-07-11T11:15:57.187Z,53.10
2018-07-11T11:18:25.709Z,53.00
2018-07-11T11:20:55.251Z,53.50
2018-07-11T11:23:23.689Z,54.50
2018-07-11T11:25:52.008Z,53.40
2018-07-11T11:28:20.296Z,54.70
2018-07-11T11:30:48.553Z,54.80
2018-07-11T11:33:16.833Z,57.40
2018-07-11T11:35:45.137Z,59.10
2018-07-11T11:38:13.356Z,60.90
2018-07-11T11:40:41.606Z,60.90
2018-07-11T11:43:09.890Z,61.70
2018-07-11T11:45:38.177Z,60.70
2018-07-11T11:48:06.442Z,60.90
2018-07-11T11:50:34.844Z,61.50
2018-07-11T11:53:03.124Z,63.00
2018-07-11T11:55:31.412Z,63.40
2018-07-11T11:58:00.037Z,63.80
2018-07-11T12:00:28.309Z,64.00
2018-07-11T12:02:56.573Z,65.30
2018-07-11T12:05:24.815Z,61.90
2018-07-11T12:07:53.071Z,61.40
2018-07-11T12:10:21.319Z,60.70
2018-07-11T12:12:49.564Z,61.70
2018-07-11T12:15:17.817Z,59.90
2018-07-11T12:17:46.083Z,59.80
2018-07-11T12:20:14.340Z,60.00
2018-07-11T12:22:42.641Z,59.70
2018-07-11T12:25:10.917Z,58.70
2018-07-11T12:27:40.016Z,59.60
2018-07-11T12:30:08.291Z,60.20
2018-07-11T12:32:36.569Z,60.80
2018-07-11T12:35:11.264Z,61.60
2018-07-11T12:37:45.790Z,59.90
2018-07-11T12:40:14.063Z,59.60
2018-07-11T12:42:42.364Z,59.60
2018-07-11T12:45:10.620Z,58.00
2018-07-11T12:49:45.129Z,58.00
2018-07-11T12:52:13.416Z,58.90
2018-07-11T12:54:41.836Z,55.40
2018-07-11T12:57:10.545Z,56.10
2018-07-11T12:59:38.921Z,54.40
2018-07-11T13:02:07.281Z,57.10
2018-07-11T13:04:35.595Z,55.80
2018-07-11T13:07:04.193Z,55.50
2018-07-11T13:09:32.633Z,55.90
2018-07-11T13:12:01.247Z,55.80
2018-07-11T13:14:29.500Z,56.50
2018-07-11T13:16:57.779Z,54.60
2018-07-11T13:19:26.068Z,54.70
2018-07-11T13:21:54.351Z,54.90
2018-07-11T13:24:22.608Z,53.30
2018-07-11T13:26:50.876Z,53.40
2018-07-11T13:29:19.160Z,52.40
2018-07-11T13:31:47.472Z,50.40
2018-07-11T13:34:15.728Z,50.70
2018-07-11T13:36:44.029Z,50.70
2018-07-11T13:39:20.444Z,52.40
2018-07-11T13:41:49.500Z,53.70
2018-07-11T13:44:17.812Z,53.20
2018-07-11T13:46:46.393Z,52.40
2018-07-11T13:49:14.657Z,51.20
2018-07-11T13:51:42.945Z,50.40
2018-07-11T13:54:11.692Z,50.80
2018-07-11T13:56:40.020Z,51.30
2018-07-11T13:59:08.307Z,52.30
2018-07-11T14:01:36.620Z,51.10
2018-07-11T14:04:04.883Z,49.70
2018-07-11T14:06:33.278Z,49.00
2018-07-11T14:09:01.584Z,47.90
2018-07-11T14:11:29.879Z,46.60
2018-07-11T14:13:58.199Z,48.50
2018-07-11T14:16:26.418Z,46.60
2018-07-11T14:18:54.701Z,47.40
2018-07-11T14:21:23.009Z,47.20
2018-07-11T14:23:51.468Z,48.60
2018-07-11T14:26:19.788Z,49.00
2018-07-11T14:28:49.996Z,49.80
2018-07-11T14:31:27.368Z,49.30
2018-07-11T14:33:55.668Z,50.30
2018-07-11T14:36:23.993Z,48.20
2018-07-11T14:38:52.245Z,49.40
2018-07-11T14:41:20.550Z,49.30
2018-07-11T14:43:48.921Z,49.50
2018-07-11T14:46:18.229Z,50.20
2018-07-11T14:48:46.541Z,50.70
2018-07-11T14:51:14.929Z,50.10
2018-07-11T14:53:43.173Z,48.90
2018-07-11T14:56:11.468Z,50.60
2018-07-11T14:58:39.752Z,49.80
2018-07-11T15:01:08.076Z,51.10
2018-07-11T15:03:36.771Z,50.10
2018-07-11T15:06:05.077Z,50.50
2018-07-11T15:08:33.473Z,50.80
2018-07-11T15:11:01.728Z,51.70
2018-07-11T15:13:30.017Z,50.70
2018-07-11T15:15:58.263Z,51.10
2018-07-11T15:18:26.572Z,50.50
2018-07-11T15:20:54.880Z,50.70
2018-07-11T15:23:23.195Z,52.00
2018-07-11T15:25:51.481Z,52.40
2018-07-11T15:28:19.779Z,52.40
2018-07-11T15:30:48.089Z,52.50
2018-07-11T15:33:16.365Z,52.10
2018-07-11T15:35:44.777Z,52.20
2018-07-11T15:38:13.102Z,52.80
2018-07-11T15:40:41.403Z,52.90
2018-07-11T15:43:09.720Z,51.80
2018-07-11T15:45:38.297Z,51.90
2018-07-11T15:48:06.569Z,51.30
2018-07-11T15:50:34.960Z,49.30
2018-07-11T15:53:03.302Z,49.30
2018-07-11T15:55:32.068Z,49.20
2018-07-11T15:58:06.177Z,48.30
2018-07-11T16:00:37.012Z,47.70
2018-07-11T16:03:05.837Z,47.50
2018-07-11T16:05:37.261Z,49.20
2018-07-11T16:08:05.792Z,48.00
2018-07-11T16:10:44.713Z,46.70
2018-07-11T16:13:12.984Z,45.20
2018-07-11T16:15:41.474Z,45.50
2018-07-11T16:18:09.963Z,46.40
2018-07-11T16:20:38.663Z,45.20
2018-07-11T16:23:07.876Z,46.50
2018-07-11T16:25:36.433Z,48.20
2018-07-11T16:28:05.604Z,46.60
2018-07-11T16:30:33.867Z,44.10
2018-07-11T16:33:02.659Z,42.50
2018-07-11T16:35:30.973Z,42.00
2018-07-11T16:37:59.260Z,44.10
2018-07-11T16:40:28.117Z,42.50
2018-07-11T16:42:56.400Z,43.30
2018-07-11T16:45:25.895Z,44.20
2018-07-11T16:47:54.763Z,45.30
2018-07-11T16:50:23.453Z,45.80
2018-07-11T16:52:51.906Z,47.20
2018-07-11T16:55:20.212Z,48.20
2018-07-11T16:57:49.817Z,49.40
2018-07-11T17:00:21.724Z,47.40
2018-07-11T17:02:53.328Z,43.10
2018-07-11T17:05:22.018Z,41.10
2018-07-11T17:07:52.028Z,37.50
2018-07-11T17:10:21.513Z,37.20
2018-07-11T17:13:12.528Z,37.40
2018-07-11T17:15:45.462Z,38.40
2018-07-11T17:18:33.735Z,39.80
2018-07-11T17:21:05.526Z,42.30
2018-07-11T17:23:34.351Z,44.80
2018-07-11T17:26:02.989Z,44.90
2018-07-11T17:28:31.317Z,46.50
2018-07-11T17:30:59.760Z,46.10
2018-07-11T17:33:28.033Z,44.50
2018-07-11T17:35:56.341Z,43.00
2018-07-11T17:38:27.333Z,42.00
2018-07-11T17:40:56.424Z,40.60
2018-07-11T17:43:33.610Z,41.50
2018-07-11T17:46:02.736Z,42.40
2018-07-11T17:48:39.184Z,44.70
2018-07-11T17:51:14.412Z,43.60
2018-07-11T17:53:45.506Z,42.40
2018-07-11T17:56:14.421Z,42.20
2018-07-11T17:58:51.586Z,41.10
2018-07-11T18:01:19.894Z,40.50
2018-07-11T18:03:58.428Z,40.00
2018-07-11T18:06:36.531Z,39.80
2018-07-11T18:09:09.788Z,40.50
2018-07-11T18:11:57.439Z,41.40
2018-07-11T18:14:33.992Z,40.20
2018-07-11T18:18:19.268Z,40.60
2018-07-11T18:23:05.340Z,40.30
2018-07-11T18:27:45.165Z,41.40
2018-07-11T18:30:23.560Z,40.30
2018-07-11T18:33:02.101Z,41.70
2018-07-11T18:35:39.139Z,42.10
2018-07-11T18:38:19.564Z,43.70
2018-07-11T18:40:55.647Z,45.20
2018-07-11T18:43:36.933Z,46.60
2018-07-11T18:46:12.408Z,47.90
2018-07-11T18:48:49.804Z,48.90
2018-07-11T18:51:24.364Z,49.60
2018-07-11T18:54:03.005Z,50.30
2018-07-11T18:56:48.250Z,51.20
2018-07-11T18:59:28.084Z,51.80
2018-07-11T19:02:05.992Z,52.60
2018-07-11T19:06:47.982Z,52.80
2018-07-11T19:09:56.096Z,53.30
2018-07-11T19:12:30.684Z,53.80
2018-07-11T19:15:14.581Z,54.20
2018-07-11T19:18:19.442Z,54.00
2018-07-11T19:21:08.800Z,54.00
2018-07-11T19:23:47.891Z,54.90
2018-07-11T19:26:26.795Z,55.10
2018-07-11T19:29:10.965Z,55.20
2018-07-11T19:33:56.243Z,55.50
2018-07-11T19:36:42.261Z,55.90
2018-07-11T19:39:23.228Z,56.20
2018-07-11T19:41:56.975Z,56.80
2018-07-11T19:44:50.686Z,58.10
2018-07-11T19:47:40.324Z,57.20
2018-07-11T19:52:21.724Z,57.60
2018-07-11T19:55:01.952Z,58.00
2018-07-11T19:57:30.249Z,58.40
2018-07-11T19:59:58.508Z,59.00
2018-07-11T20:02:26.828Z,58.80
2018-07-11T20:04:55.104Z,58.70
2018-07-11T20:07:23.408Z,60.40
2018-07-11T20:09:51.736Z,59.70
2018-07-11T20:12:20.045Z,59.80
2018-07-11T20:14:48.349Z,60.60
2018-07-11T20:17:16.602Z,61.60
2018-07-11T20:19:44.887Z,63.00
2018-07-11T20:22:13.168Z,60.90
2018-07-11T20:24:41.468Z,64.40
2018-07-11T20:27:09.772Z,62.40
2018-07-11T20:29:38.064Z,63.90
2018-07-11T20:32:06.355Z,64.40
2018-07-11T20:34:34.600Z,65.20
2018-07-11T20:37:02.850Z,67.50
2018-07-11T20:39:31.144Z,67.70
2018-07-11T20:41:59.400Z,67.00
2018-07-11T20:44:27.673Z,68.80
2018-07-11T20:46:55.927Z,69.40
2018-07-11T20:49:29.420Z,68.70
2018-07-11T20:51:57.709Z,67.30
2018-07-11T20:54:25.959Z,68.60
2018-07-11T20:56:54.213Z,69.10
2018-07-11T20:59:33.512Z,69.90
2018-07-11T21:02:13.057Z,68.40
2018-07-11T21:04:51.252Z,69.10
2018-07-11T21:07:32.392Z,71.00
2018-07-11T21:10:13.410Z,71.70
2018-07-11T21:12:59.626Z,72.90
2018-07-11T21:15:43.180Z,72.90
2018-07-11T21:19:16.929Z,74.10
2018-07-11T21:21:45.167Z,74.70
2018-07-11T21:24:13.800Z,75.20
2018-07-11T21:26:42.067Z,75.50
2018-07-11T21:29:10.340Z,75.70
2018-07-11T21:31:38.591Z,75.90
2018-07-11T21:34:06.881Z,76.10
2018-07-11T21:36:35.145Z,76.60
2018-07-11T21:39:04.713Z,76.50
2018-07-11T21:41:33.079Z,76.40
2018-07-11T21:44:01.328Z,76.20
2018-07-11T21:46:29.607Z,76.40
2018-07-11T21:48:57.873Z,76.70
2018-07-11T21:51:26.131Z,76.50
2018-07-11T21:53:54.398Z,76.70
2018-07-11T21:56:22.664Z,77.00
2018-07-11T21:58:50.970Z,76.70
2018-07-11T22:01:19.233Z,77.10
2018-07-11T22:03:47.494Z,77.20
2018-07-11T22:06:15.779Z,76.80
2018-07-11T22:08:44.021Z,77.20
2018-07-11T22:11:12.302Z,78.20
2018-07-11T22:13:40.581Z,77.90
2018-07-11T22:16:08.854Z,78.00
2018-07-11T22:18:39.079Z,77.50
2018-07-11T22:21:07.380Z,77.80
2018-07-11T22:23:34.592Z,78.20
2018-07-11T22:26:01.952Z,78.30
2018-07-11T22:28:29.220Z,78.40
2018-07-11T22:30:56.467Z,78.20
2018-07-11T22:33:23.761Z,78.90
2018-07-11T22:35:50.973Z,78.70
2018-07-11T22:38:18.178Z,78.50
2018-07-11T22:40:45.728Z,78.40
2018-07-11T22:43:12.941Z,78.90
2018-07-11T22:45:40.136Z,79.60
2018-07-11T22:48:07.357Z,78.70
2018-07-11T22:50:34.559Z,79.50
2018-07-11T22:53:01.766Z,79.80
2018-07-11T22:55:28.980Z,80.40
2018-07-11T22:57:56.200Z,80.60
2018-07-11T23:00:23.408Z,80.50
2018-07-11T23:02:50.612Z,80.50
2018-07-11T23:05:17.828Z,79.90
2018-07-11T23:07:45.045Z,80.30
2018-07-11T23:10:12.271Z,81.00
2018-07-11T23:12:39.482Z,80.90
2018-07-11T23:15:06.688Z,81.40
2018-07-11T23:17:33.900Z,82.10
2018-07-11T23:20:01.104Z,82.20
2018-07-11T23:22:28.321Z,82.40
2018-07-11T23:24:55.528Z,82.30
2018-07-11T23:27:22.728Z,81.90
2018-07-11T23:29:49.948Z,83.00
2018-07-11T23:32:17.145Z,82.80
2018-07-11T23:34:44.353Z,83.20
2018-07-11T23:37:11.560Z,82.90
2018-07-11T23:39:38.782Z,83.40
2018-07-11T23:42:05.983Z,82.90
2018-07-11T23:44:33.188Z,82.90
2018-07-11T23:47:00.396Z,83.20
2018-07-11T23:49:27.608Z,82.90
2018-07-11T23:51:54.821Z,83.50
2018-07-11T23:54:22.022Z,83.60
2018-07-11T23:56:49.237Z,83.80
2018-07-11T23:59:16.444Z,84.90
